createdAt,value
2018-07-12T00:01:52.415Z,98641.95
2018-07-12T00:04:19.647Z,98643.89
2018-07-12T00:06:46.904Z,98647.44
2018-07-12T00:09:14.303Z,98642.36
2018-07-12T00:11:41.580Z,98639.97
2018-07-12T00:14:08.899Z,98637.57
2018-07-12T00:16:36.234Z,98640.77
2018-07-12T00:19:03.518Z,98636.37
2018-07-12T00:21:30.822Z,98632.55
2018-07-12T00:23:58.057Z,98634.19
2018-07-12T00:26:25.321Z,98629.39
2018-07-12T00:28:52.667Z,98635.45
2018-07-12T00:31:19.903Z,98631.84
2018-07-12T00:33:47.211Z,98629.66
2018-07-12T00:36:14.502Z,98635.11
2018-07-12T00:38:41.779Z,98631.45
2018-07-12T00:41:09.022Z,98636.69
2018-07-12T00:43:36.424Z,98628.34
2018-07-12T00:46:03.653Z,98627.71
2018-07-12T00:48:30.910Z,98633.92
2018-07-12T00:50:58.255Z,98626.71
2018-07-12T00:53:25.592Z,98630.91
2018-07-12T00:55:53.335Z,98629.56
2018-07-12T00:58:20.598Z,98622.80
2018-07-12T01:00:47.822Z,98624.22
2018-07-12T01:03:15.122Z,98616.30
2018-07-12T01:05:42.380Z,98623.20
2018-07-12T01:08:09.648Z,98624.83
2018-07-12T01:10:37.015Z,98624.06
2018-07-12T01:13:04.281Z,98624.81
2018-07-12T01:15:31.531Z,98623.97
2018-07-12T01:17:58.816Z,98629.97
2018-07-12T01:20:26.279Z,98629.69
2018-07-12T01:22:53.574Z,98624.17
2018-07-12T01:25:21.376Z,98634.03
2018-07-12T01:27:48.659Z,98629.84
2018-07-12T01:30:15.886Z,98628.59
2018-07-12T01:32:43.737Z,98625.69
2018-07-12T01:35:11.107Z,98623.91
2018-07-12T01:37:38.383Z,98621.42
2018-07-12T01:40:05.692Z,98629.37
2018-07-12T01:42:32.928Z,98632.34
2018-07-12T01:45:00.226Z,98632.22
2018-07-12T01:47:27.463Z,98632.91
2018-07-12T01:49:54.773Z,98631.70
2018-07-12T01:52:22.275Z,98632.72
2018-07-12T01:54:49.565Z,98630.59
2018-07-12T02:02:56.074Z,98634.02
2018-07-12T02:05:23.407Z,98637.59
2018-07-12T02:07:50.668Z,98633.65
2018-07-12T02:10:17.992Z,98630.75
2018-07-12T02:12:45.234Z,98630.63
2018-07-12T02:15:12.552Z,98629.19
2018-07-12T02:17:39.825Z,98632.59
2018-07-12T02:20:07.116Z,98628.72
2018-07-12T02:22:34.363Z,98630.63
2018-07-12T02:25:01.627Z,98629.19
2018-07-12T02:27:29.219Z,98632.59
2018-07-12T02:29:56.651Z,98640.28
2018-07-12T02:32:23.933Z,98639.44
2018-07-12T02:34:51.497Z,98635.27
2018-07-12T02:37:18.823Z,98632.96
2018-07-12T02:39:46.135Z,98638.34
2018-07-12T02:42:13.408Z,98637.42
2018-07-12T02:44:40.658Z,98631.24
2018-07-12T02:47:07.891Z,98634.54
2018-07-12T02:49:35.147Z,98642.05
2018-07-12T02:52:02.382Z,98643.80
2018-07-12T02:54:29.635Z,98646.78
2018-07-12T02:56:57.047Z,98633.66
2018-07-12T02:59:24.491Z,98634.16
2018-07-12T03:01:51.803Z,98638.41
2018-07-12T03:04:19.082Z,98631.72
2018-07-12T03:06:46.481Z,98638.91
2018-07-12T03:09:13.879Z,98632.33
2018-07-12T03:11:41.161Z,98637.83
2018-07-12T03:14:08.456Z,98636.12
2018-07-12T03:16:35.727Z,98639.64
2018-07-12T03:19:03.099Z,98640.93
2018-07-12T03:21:30.355Z,98638.38
2018-07-12T03:23:57.643Z,98633.28
2018-07-12T03:26:24.895Z,98631.94
2018-07-12T03:28:52.239Z,98638.64
2018-07-12T03:31:22.818Z,98637.61
2018-07-12T03:33:50.249Z,98637.84
2018-07-12T03:36:17.506Z,98640.63
2018-07-12T03:38:44.758Z,98641.25
2018-07-12T03:41:12.006Z,98643.46
2018-07-12T03:43:39.226Z,98639.45
2018-07-12T03:46:06.501Z,98640.17
2018-07-12T03:48:34.690Z,98647.13
2018-07-12T03:51:01.976Z,98648.73
2018-07-12T03:53:29.228Z,98651.03
2018-07-12T03:55:56.482Z,98648.62
2018-07-12T03:58:23.715Z,98652.41
2018-07-12T04:00:50.979Z,98649.77
2018-07-12T04:03:18.207Z,98651.83
2018-07-12T04:05:45.545Z,98641.70
2018-07-12T04:08:12.804Z,98643.39
2018-07-12T04:10:40.044Z,98647.52
2018-07-12T04:13:07.331Z,98644.61
2018-07-12T04:15:34.647Z,98653.72
2018-07-12T04:18:01.901Z,98659.03
2018-07-12T04:20:29.122Z,98652.84
2018-07-12T04:22:56.394Z,98651.50
2018-07-12T04:25:23.619Z,98653.56
2018-07-12T04:27:50.880Z,98653.52
2018-07-12T04:30:18.195Z,98659.68
2018-07-12T04:32:45.476Z,98660.14
2018-07-12T04:35:12.825Z,98666.52
2018-07-12T04:37:40.176Z,98660.88
2018-07-12T04:40:07.431Z,98655.73
2018-07-12T04:42:34.715Z,98664.30
2018-07-12T04:45:01.945Z,98669.61
2018-07-12T04:47:29.196Z,98669.09
2018-07-12T04:49:56.426Z,98671.33
2018-07-12T04:52:23.682Z,98676.19
2018-07-12T04:54:50.935Z,98671.37
2018-07-12T04:57:18.216Z,98677.95
2018-07-12T04:59:45.747Z,98673.81
2018-07-12T05:02:13.066Z,98674.18
2018-07-12T05:04:40.523Z,98674.52
2018-07-12T05:07:07.890Z,98676.46
2018-07-12T05:09:35.122Z,98672.37
2018-07-12T05:12:02.358Z,98671.80
2018-07-12T05:14:29.602Z,98683.81
2018-07-12T05:16:56.865Z,98675.78
2018-07-12T05:19:24.150Z,98677.05
2018-07-12T05:21:51.580Z,98670.30
2018-07-12T05:24:18.856Z,98672.58
2018-07-12T05:26:46.107Z,98670.52
2018-07-12T05:29:13.376Z,98669.91
2018-07-12T05:31:40.611Z,98673.64
2018-07-12T05:34:07.870Z,98680.15
2018-07-12T05:37:07.369Z,98675.24
2018-07-12T05:39:35.970Z,98671.91
2018-07-12T05:42:04.661Z,98669.68
2018-07-12T05:44:33.234Z,98676.75
2018-07-12T05:47:01.738Z,98677.20
2018-07-12T05:49:30.271Z,98679.16
2018-07-12T05:51:58.723Z,98670.86
2018-07-12T05:54:27.653Z,98677.19
2018-07-12T05:56:56.208Z,98673.28
2018-07-12T05:59:24.757Z,98669.62
2018-07-12T06:02:04.678Z,98668.81
2018-07-12T06:04:33.228Z,98666.81
2018-07-12T06:07:01.728Z,98663.23
2018-07-12T06:09:30.185Z,98666.72
2018-07-12T06:11:58.704Z,98674.23
2018-07-12T06:14:27.342Z,98670.67
2018-07-12T06:16:55.819Z,98674.31
2018-07-12T06:19:26.363Z,98675.81
2018-07-12T06:21:55.446Z,98670.92
2018-07-12T06:24:24.098Z,98674.11
2018-07-12T06:26:52.656Z,98671.75
2018-07-12T06:29:21.207Z,98673.84
2018-07-12T06:31:49.823Z,98678.27
2018-07-12T06:34:18.599Z,98681.41
2018-07-12T06:36:47.088Z,98684.02
2018-07-12T06:39:15.699Z,98676.79
2018-07-12T06:41:44.466Z,98671.36
2018-07-12T06:44:13.379Z,98677.48
2018-07-12T06:46:41.890Z,98675.51
2018-07-12T06:49:10.393Z,98676.89
2018-07-12T06:51:38.907Z,98674.28
2018-07-12T06:54:07.619Z,98678.35
2018-07-12T06:56:36.230Z,98675.65
2018-07-12T06:59:04.731Z,98675.34
2018-07-12T07:01:33.286Z,98674.21
2018-07-12T07:04:01.867Z,98668.64
2018-07-12T07:06:30.411Z,98668.33
2018-07-12T07:08:58.982Z,98674.07
2018-07-12T07:11:27.458Z,98676.63
2018-07-12T07:13:55.922Z,98679.02
2018-07-12T07:16:24.467Z,98689.34
2018-07-12T07:18:52.978Z,98677.85
2018-07-12T07:21:21.535Z,98681.58
2018-07-12T07:23:50.071Z,98680.89
2018-07-12T07:26:18.640Z,98674.45
2018-07-12T07:28:47.285Z,98675.78
2018-07-12T07:31:15.911Z,98683.05
2018-07-12T07:33:44.356Z,98685.55
2018-07-12T07:36:12.867Z,98686.22
2018-07-12T07:38:41.695Z,98685.52
2018-07-12T07:41:10.481Z,98681.73
2018-07-12T07:43:38.971Z,98680.57
2018-07-12T07:46:07.438Z,98679.86
2018-07-12T07:48:36.241Z,98676.93
2018-07-12T07:51:04.911Z,98673.86
2018-07-12T07:53:33.350Z,98674.84
2018-07-12T07:56:02.012Z,98673.95
2018-07-12T07:58:30.464Z,98682.20
2018-07-12T08:00:59.039Z,98676.39
2018-07-12T08:03:27.643Z,98682.59
2018-07-12T08:05:56.207Z,98677.79
2018-07-12T08:08:24.639Z,98674.70
2018-07-12T08:10:53.287Z,98677.91
2018-07-12T08:13:21.767Z,98684.06
2018-07-12T08:15:50.538Z,98677.56
2018-07-12T08:18:19.175Z,98676.19
2018-07-12T08:20:47.942Z,98673.48
2018-07-12T08:23:16.499Z,98675.33
2018-07-12T08:25:44.979Z,98678.82
2018-07-12T08:28:26.498Z,98680.41
2018-07-12T08:30:55.395Z,98674.70
2018-07-12T08:33:24.351Z,98672.89
2018-07-12T08:35:52.810Z,98674.28
2018-07-12T08:38:21.585Z,98673.50
2018-07-12T08:40:50.103Z,98668.92
2018-07-12T08:43:18.583Z,98670.75
2018-07-12T08:45:47.108Z,98670.97
2018-07-12T08:48:15.550Z,98666.09
2018-07-12T08:50:44.002Z,98665.06
2018-07-12T08:53:12.679Z,98664.13
2018-07-12T08:55:41.175Z,98661.75
2018-07-12T08:58:09.688Z,98663.88
2018-07-12T09:00:38.283Z,98664.16
2018-07-12T09:03:06.766Z,98663.05
2018-07-12T09:05:35.208Z,98661.70
2018-07-12T09:08:03.766Z,98658.94
2018-07-12T09:10:32.248Z,98661.00
2018-07-12T09:13:01.717Z,98659.76
2018-07-12T09:15:30.278Z,98657.33
2018-07-12T09:17:58.760Z,98663.85
2018-07-12T09:20:27.352Z,98661.97
2018-07-12T09:22:55.782Z,98664.44
2018-07-12T09:25:24.357Z,98664.72
2018-07-12T09:27:52.767Z,98662.84
2018-07-12T09:30:21.218Z,98661.47
2018-07-12T09:32:49.734Z,98660.70
2018-07-12T09:35:18.190Z,98651.67
2018-07-12T09:37:46.678Z,98660.91
2018-07-12T09:40:15.145Z,98666.48
2018-07-12T09:42:43.647Z,98663.23
2018-07-12T09:45:12.299Z,98660.56
2018-07-12T09:47:40.859Z,98656.11
2018-07-12T09:50:09.564Z,98658.99
2018-07-12T09:52:38.108Z,98660.20
2018-07-12T09:55:06.711Z,98669.54
2018-07-12T09:57:46.609Z,98664.09
2018-07-12T10:00:15.204Z,98663.53
2018-07-12T10:02:48.920Z,98663.96
2018-07-12T10:05:22.652Z,98667.83
2018-07-12T10:07:55.235Z,98671.46
2018-07-12T10:10:30.046Z,98674.91
2018-07-12T10:13:03.864Z,98672.71
2018-07-12T10:15:37.644Z,98667.09
2018-07-12T10:18:11.553Z,98672.95
2018-07-12T10:20:40.075Z,98668.38
2018-07-12T10:23:08.519Z,98673.72
2018-07-12T10:25:37.101Z,98672.64
2018-07-12T10:28:05.823Z,98671.41
2018-07-12T10:30:34.223Z,98671.85
2018-07-12T10:33:02.822Z,98670.45
2018-07-12T10:35:31.318Z,98665.84
2018-07-12T10:37:59.819Z,98666.67
2018-07-12T10:40:28.346Z,98669.95
2018-07-12T10:42:56.843Z,98667.19
2018-07-12T10:45:25.354Z,98670.58
2018-07-12T10:47:53.845Z,98660.19
2018-07-12T10:50:22.405Z,98664.05
2018-07-12T10:52:50.903Z,98666.50
2018-07-12T10:55:19.492Z,98664.20
2018-07-12T10:57:48.051Z,98659.72
2018-07-12T11:00:16.524Z,98657.01
2018-07-12T11:02:45.255Z,98657.98
2018-07-12T11:05:13.842Z,98666.06
2018-07-12T11:07:42.350Z,98647.33
2018-07-12T11:10:10.863Z,98646.45
2018-07-12T11:12:39.499Z,98640.42
2018-07-12T11:15:08.039Z,98640.07
2018-07-12T11:17:36.498Z,98644.65
2018-07-12T11:20:05.046Z,98645.00
2018-07-12T11:22:33.691Z,98641.98
2018-07-12T11:25:02.263Z,98639.63
2018-07-12T11:27:31.743Z,98642.98
2018-07-12T11:30:01.270Z,98638.27
2018-07-12T11:32:29.767Z,98642.98
2018-07-12T11:34:58.260Z,98635.78
2018-07-12T11:37:27.789Z,98631.97
2018-07-12T11:39:56.363Z,98638.37
2018-07-12T11:42:25.150Z,98633.20
2018-07-12T11:44:53.780Z,98634.05
2018-07-12T11:47:22.317Z,98642.11
2018-07-12T11:49:50.867Z,98641.55
2018-07-12T11:52:19.334Z,98640.78
2018-07-12T11:54:47.941Z,98642.85
2018-07-12T11:57:16.422Z,98638.97
2018-07-12T11:59:44.953Z,98628.56
2018-07-12T12:02:13.484Z,98624.51
2018-07-12T12:04:41.983Z,98627.73
2018-07-12T12:07:10.695Z,98627.16
2018-07-12T12:09:39.262Z,98629.03
2018-07-12T12:12:07.768Z,98621.59
2018-07-12T12:14:36.290Z,98625.66
2018-07-12T12:17:04.903Z,98623.30
2018-07-12T12:19:33.530Z,98621.44
2018-07-12T12:22:02.095Z,98623.95
2018-07-12T12:24:30.522Z,98616.03
2018-07-12T12:26:59.050Z,98616.77
2018-07-12T12:29:27.537Z,98614.43
2018-07-12T12:31:56.049Z,98610.28
2018-07-12T12:34:24.634Z,98613.27
2018-07-12T12:36:53.295Z,98608.47
2018-07-12T12:39:21.821Z,98614.27
2018-07-12T12:41:50.342Z,98612.44
2018-07-12T12:44:18.819Z,98617.27
2018-07-12T12:46:47.273Z,98610.14
2018-07-12T12:49:15.832Z,98608.76
2018-07-12T12:51:46.123Z,98597.23
2018-07-12T12:54:14.600Z,98605.52
2018-07-12T12:56:43.186Z,98601.73
2018-07-12T12:59:11.694Z,98609.75
2018-07-12T13:01:40.241Z,98613.73
2018-07-12T13:04:08.691Z,98609.11
2018-07-12T13:06:37.245Z,98610.03
2018-07-12T13:09:07.064Z,98601.71
2018-07-12T13:11:35.621Z,98603.62
2018-07-12T13:14:04.091Z,98592.38
2018-07-12T13:16:32.563Z,98602.50
2018-07-12T13:19:01.007Z,98593.00
2018-07-12T13:21:29.519Z,98605.57
2018-07-12T13:23:57.982Z,98601.56
2018-07-12T13:26:26.592Z,98601.91
2018-07-12T13:28:55.079Z,98606.86
2018-07-12T13:31:23.598Z,98603.44
2018-07-12T13:33:52.102Z,98603.03
2018-07-12T13:36:20.671Z,98587.89
2018-07-12T13:38:49.227Z,98592.21
2018-07-12T13:41:17.674Z,98591.36
2018-07-12T13:43:46.161Z,98591.81
2018-07-12T13:46:14.719Z,98585.23
2018-07-12T13:48:43.233Z,98593.24
2018-07-12T13:51:11.675Z,98599.26
2018-07-12T13:53:40.199Z,98597.04
2018-07-12T13:56:08.747Z,98596.99
2018-07-12T13:58:37.355Z,98592.57
2018-07-12T14:01:06.223Z,98596.59
2018-07-12T14:03:34.794Z,98592.04
2018-07-12T14:06:03.294Z,98589.72
2018-07-12T14:08:31.780Z,98586.55
2018-07-12T14:11:00.317Z,98595.77
2018-07-12T14:13:28.862Z,98587.41
2018-07-12T14:15:57.370Z,98588.61
2018-07-12T14:18:25.810Z,98588.28
2018-07-12T14:20:54.460Z,98584.55
2018-07-12T14:23:23.222Z,98588.47
2018-07-12T14:25:51.747Z,98587.88
2018-07-12T14:28:20.271Z,98587.55
2018-07-12T14:30:48.853Z,98571.01
2018-07-12T14:33:17.481Z,98584.75
2018-07-12T14:35:46.033Z,98570.83
2018-07-12T14:38:14.515Z,98567.76
2018-07-12T14:40:43.033Z,98568.60
2018-07-12T14:43:11.657Z,98559.26
2018-07-12T14:45:40.232Z,98562.90
2018-07-12T14:48:08.720Z,98561.00
2018-07-12T14:50:37.357Z,98560.17
2018-07-12T14:53:05.833Z,98563.20
2018-07-12T14:55:34.355Z,98560.79
2018-07-12T14:58:02.948Z,98557.22
2018-07-12T15:00:31.651Z,98561.36
2018-07-12T15:03:00.175Z,98560.04
2018-07-12T15:05:28.692Z,98557.52
2018-07-12T15:07:57.273Z,98552.97
2018-07-12T15:10:25.811Z,98555.48
2018-07-12T15:12:54.365Z,98554.19
2018-07-12T15:15:22.874Z,98552.39
2018-07-12T15:17:51.362Z,98557.67
2018-07-12T15:20:20.015Z,98552.41
2018-07-12T15:22:48.479Z,98551.19
2018-07-12T15:25:16.998Z,98552.41
2018-07-12T15:27:45.638Z,98552.63
2018-07-12T15:30:14.216Z,98552.23
2018-07-12T15:32:42.639Z,98552.93
2018-07-12T15:35:11.572Z,98560.27
2018-07-12T15:37:40.047Z,98553.03
2018-07-12T15:40:08.615Z,98554.44
2018-07-12T15:42:37.158Z,98549.81
2018-07-12T15:45:06.094Z,98552.92
2018-07-12T15:47:34.534Z,98553.94
2018-07-12T15:50:03.071Z,98553.36
2018-07-12T15:52:31.624Z,98563.89
2018-07-12T15:55:00.155Z,98556.56
2018-07-12T15:57:28.804Z,98558.58
2018-07-12T15:59:57.310Z,98561.95
2018-07-12T16:02:25.827Z,98560.61
2018-07-12T16:04:54.407Z,98560.75
2018-07-12T16:07:23.016Z,98560.53
2018-07-12T16:09:51.539Z,98566.44
2018-07-12T16:12:20.003Z,98565.86
2018-07-12T16:14:48.499Z,98569.05
2018-07-12T16:17:17.210Z,98566.20
2018-07-12T16:19:45.982Z,98565.39
2018-07-12T16:22:14.566Z,98562.12
2018-07-12T16:24:43.147Z,98566.61
2018-07-12T16:27:11.628Z,98569.72
2018-07-12T16:29:40.311Z,98569.88
2018-07-12T16:32:08.787Z,98569.98
2018-07-12T16:34:37.413Z,98575.09
2018-07-12T16:37:06.324Z,98573.09
2018-07-12T16:39:34.916Z,98577.32
2018-07-12T16:42:03.578Z,98571.20
2018-07-12T16:44:32.002Z,98578.58
2018-07-12T16:47:00.664Z,98573.38
2018-07-12T16:49:29.243Z,98574.54
2018-07-12T16:51:57.900Z,98580.06
2018-07-12T16:54:26.332Z,98579.80
2018-07-12T16:56:54.990Z,98566.20
2018-07-12T16:59:23.510Z,98584.43
2018-07-12T17:01:52.019Z,98571.67
2018-07-12T17:04:20.917Z,98571.14
2018-07-12T17:06:49.388Z,98576.42
2018-07-12T17:09:17.925Z,98573.42
2018-07-12T17:11:46.445Z,98576.07
2018-07-12T17:14:15.191Z,98576.36
2018-07-12T17:16:43.696Z,98581.02
2018-07-12T17:19:12.230Z,98583.80
2018-07-12T17:21:41.004Z,98589.09
2018-07-12T17:24:09.669Z,98585.98
2018-07-12T17:26:38.339Z,98587.02
2018-07-12T17:29:06.802Z,98585.38
2018-07-12T17:31:35.353Z,98586.29
2018-07-12T17:34:03.966Z,98588.12
2018-07-12T17:36:32.492Z,98586.47
2018-07-12T17:39:00.950Z,98587.66
2018-07-12T17:41:29.563Z,98595.63
2018-07-12T17:43:58.138Z,98594.69
2018-07-12T17:46:26.732Z,98591.45
2018-07-12T17:48:55.270Z,98595.38
2018-07-12T17:51:24.083Z,98583.59
2018-07-12T17:53:52.580Z,98594.22
2018-07-12T17:56:21.233Z,98590.83
2018-07-12T17:58:49.818Z,98589.18
2018-07-12T18:01:18.431Z,98596.27
2018-07-12T18:03:46.975Z,98591.21
2018-07-12T18:06:15.496Z,98589.75
2018-07-12T18:08:43.979Z,98592.52
2018-07-12T18:11:12.483Z,98594.62
2018-07-12T18:13:40.950Z,98596.20
2018-07-12T18:16:09.399Z,98589.97
2018-07-12T18:18:37.978Z,98600.33
2018-07-12T18:21:06.768Z,98598.77
2018-07-12T18:23:35.258Z,98601.92
2018-07-12T18:26:03.766Z,98598.83
2018-07-12T18:28:32.666Z,98598.83
2018-07-12T18:31:01.117Z,98598.98
2018-07-12T18:33:29.619Z,98606.17
2018-07-12T18:35:58.059Z,98611.05
2018-07-12T18:38:26.711Z,98608.23
2018-07-12T18:40:55.279Z,98606.94
2018-07-12T18:43:23.781Z,98607.82
2018-07-12T18:45:52.247Z,98610.22
2018-07-12T18:48:20.715Z,98618.96
2018-07-12T18:50:49.201Z,98619.91
2018-07-12T18:53:17.727Z,98628.13
2018-07-12T18:55:46.287Z,98627.59
2018-07-12T18:58:14.894Z,98632.98
2018-07-12T19:00:43.600Z,98627.50
2018-07-12T19:03:12.151Z,98627.11
2018-07-12T19:05:40.710Z,98631.08
2018-07-12T19:08:09.260Z,98632.60
2018-07-12T19:10:37.893Z,98635.66
2018-07-12T19:13:06.433Z,98640.33
2018-07-12T19:15:34.925Z,98640.30
2018-07-12T19:18:03.510Z,98645.61
2018-07-12T19:20:32.004Z,98639.39
2018-07-12T19:23:00.641Z,98641.73
2018-07-12T19:25:29.231Z,98642.53
2018-07-12T19:27:57.923Z,98652.01
2018-07-12T19:30:26.407Z,98651.84
2018-07-12T19:32:54.906Z,98651.13
2018-07-12T19:35:23.431Z,98651.34
2018-07-12T19:37:51.865Z,98658.91
2018-07-12T19:40:20.405Z,98656.00
2018-07-12T19:42:49.198Z,98657.48
2018-07-12T19:45:17.769Z,98664.49
2018-07-12T19:47:46.195Z,98667.45
2018-07-12T19:50:14.833Z,98667.56
2018-07-12T19:52:43.518Z,98669.59
2018-07-12T19:55:12.004Z,98677.63
2018-07-12T19:57:40.797Z,98675.42
2018-07-12T20:00:09.257Z,98681.97
2018-07-12T20:02:37.757Z,98681.44
2018-07-12T20:05:06.252Z,98684.20
2018-07-12T20:07:34.803Z,98690.39
2018-07-12T20:10:03.445Z,98679.30
2018-07-12T20:12:31.994Z,98689.31
2018-07-12T20:15:00.577Z,98698.46
2018-07-12T20:17:29.041Z,98697.38
2018-07-12T20:19:57.510Z,98702.55
2018-07-12T20:22:27.107Z,98697.98
2018-07-12T20:24:55.609Z,98704.28
2018-07-12T20:27:24.208Z,98701.15
2018-07-12T20:29:52.811Z,98716.61
2018-07-12T20:32:21.683Z,98705.75
2018-07-12T20:34:50.272Z,98717.52
2018-07-12T20:37:18.951Z,98717.72
2018-07-12T20:39:48.114Z,98715.13
2018-07-12T20:42:16.578Z,98719.55
2018-07-12T20:44:45.140Z,98727.41
2018-07-12T20:47:13.632Z,98727.09
2018-07-12T20:49:42.162Z,98729.48
2018-07-12T20:52:10.635Z,98723.42
2018-07-12T20:54:39.461Z,98729.40
2018-07-12T20:57:07.914Z,98729.45
2018-07-12T20:59:36.405Z,98730.92
2018-07-12T21:02:04.874Z,98729.34
2018-07-12T21:04:33.336Z,98723.78
2018-07-12T21:07:01.879Z,98731.16
2018-07-12T21:09:30.903Z,98734.77
2018-07-12T21:11:59.579Z,98741.20
2018-07-12T21:14:28.055Z,98743.30
2018-07-12T21:17:00.791Z,98745.88
2018-07-12T21:19:29.282Z,98742.86
2018-07-12T21:21:57.846Z,98743.44
2018-07-12T21:24:26.303Z,98745.84
2018-07-12T21:26:54.795Z,98741.83
2018-07-12T21:29:23.385Z,98746.58
2018-07-12T21:31:52.070Z,98745.59
2018-07-12T21:34:20.540Z,98745.42
2018-07-12T21:36:49.035Z,98743.08
2018-07-12T21:39:17.595Z,98740.73
2018-07-12T21:41:46.138Z,98746.34
2018-07-12T21:44:14.639Z,98747.03
2018-07-12T21:46:43.430Z,98748.42
2018-07-12T21:49:12.095Z,98753.87
2018-07-12T21:51:40.895Z,98750.67
2018-07-12T21:54:09.513Z,98755.38
2018-07-12T21:56:38.138Z,98749.64
2018-07-12T21:59:06.869Z,98753.70
2018-07-12T22:01:35.394Z,98748.97
2018-07-12T22:04:03.846Z,98755.70
2018-07-12T22:07:13.670Z,98755.35
2018-07-12T22:09:42.316Z,98757.55
2018-07-12T22:12:10.811Z,98755.90
2018-07-12T22:14:39.445Z,98755.22
2018-07-12T22:17:07.971Z,98750.51
2018-07-12T22:19:36.415Z,98748.82
2018-07-12T22:22:04.912Z,98752.88
2018-07-12T22:24:33.402Z,98750.54
2018-07-12T22:27:02.238Z,98747.00
2018-07-12T22:29:30.666Z,98746.84
2018-07-12T22:31:59.278Z,98749.21
2018-07-12T22:34:27.690Z,98750.91
2018-07-12T22:36:56.267Z,98755.31
2018-07-12T22:39:24.991Z,98750.91
2018-07-12T22:41:53.610Z,98750.23
2018-07-12T22:44:22.264Z,98755.28
2018-07-12T22:46:50.754Z,98750.17
2018-07-12T22:49:19.186Z,98755.57
2018-07-12T22:51:47.678Z,98762.64
2018-07-12T22:54:16.191Z,98761.28
2018-07-12T22:56:44.859Z,98761.92
2018-07-12T22:59:13.435Z,98761.22
2018-07-12T23:01:41.975Z,98764.77
2018-07-12T23:04:10.543Z,98770.66
2018-07-12T23:06:39.149Z,98763.95
2018-07-12T23:09:07.781Z,98765.61
2018-07-12T23:11:36.269Z,98764.23
2018-07-12T23:14:04.944Z,98760.13
2018-07-12T23:16:33.443Z,98770.23
2018-07-12T23:19:01.915Z,98770.57
2018-07-12T23:21:30.487Z,98773.96
2018-07-12T23:23:59.188Z,98774.14
2018-07-12T23:26:27.650Z,98769.58
2018-07-12T23:28:57.203Z,98772.28
2018-07-12T23:31:25.775Z,98769.07
2018-07-12T23:33:54.290Z,98767.54
2018-07-12T23:36:22.761Z,98774.95
2018-07-12T23:38:51.194Z,98773.23
2018-07-12T23:41:19.662Z,98773.93
2018-07-12T23:43:48.187Z,98781.67
2018-07-12T23:46:16.662Z,98778.42
2018-07-12T23:48:45.219Z,98775.36
2018-07-12T23:51:14.143Z,98778.23
2018-07-12T23:53:42.750Z,98776.97
2018-07-12T23:56:11.268Z,98778.31
2018-07-12T23:58:40.036Z,98783.81
